Cizur Mayor, Spain
Current Conditions -  °F | °C
As of 6:30 AM on Tuesday 27 Jan 2015 (Local Time) from LEPP Reporting Station
Drizzle Drizzle  
Wind Chill: 43°   Ceiling: 1900
Heat Index: 43°   Visibility: 6mi
Dew Point: 43°   Wind: 2mph
Humidity: 100%   Direction: NA
Pressure: 30.36"   Gusts: NA
Location:  42.79°N, 1.69°W
Report Text: LEPP 270530Z VRB02KT 9999 -DZ BKN019 06/06 Q1028
Loading
Personal Weather Stations






























Interactive Weather Map New forecast layout! Learn more

10-Day Weather Forecast

Advertisements
Track Severe Weather on mobile